createdAt,value
2023-03-13T00:11:48.793Z,4.84
2023-03-13T00:26:51.858Z,4.81
2023-03-13T00:41:55.218Z,4.66
2023-03-13T00:56:58.566Z,4.59
2023-03-13T01:12:01.925Z,4.56
2023-03-13T01:27:07.462Z,4.59
2023-03-13T01:42:10.719Z,4.72
2023-03-13T01:57:49.540Z,4.74
2023-03-13T02:12:54.027Z,4.77
2023-03-13T02:28:02.037Z,4.93
2023-03-13T02:43:14.231Z,4.98
2023-03-13T02:58:17.887Z,4.94
2023-03-13T03:13:21.394Z,4.90
2023-03-13T03:28:24.763Z,4.97
2023-03-13T03:43:28.382Z,5.06
2023-03-13T03:58:32.808Z,5.10
2023-03-13T04:13:50.591Z,5.06
2023-03-13T04:28:54.280Z,5.14
2023-03-13T04:44:09.893Z,5.16
2023-03-13T04:59:38.419Z,5.14
2023-03-13T05:14:59.926Z,5.09
2023-03-13T05:30:09.807Z,5.01
2023-03-13T05:45:33.007Z,5.07
2023-03-13T06:00:56.397Z,5.19
2023-03-13T06:16:18.070Z,5.14
2023-03-13T06:31:24.364Z,5.19
2023-03-13T06:46:27.805Z,5.33
2023-03-13T07:01:31.274Z,5.47
2023-03-13T07:16:34.558Z,5.60
2023-03-13T07:31:39.484Z,5.67
2023-03-13T07:46:42.633Z,5.89
2023-03-13T08:01:45.794Z,6.15
2023-03-13T08:16:49.019Z,6.44
2023-03-13T08:31:52.881Z,6.75
2023-03-13T08:46:57.106Z,7.16
2023-03-13T09:02:00.412Z,7.54
2023-03-13T09:17:04.717Z,7.96
2023-03-13T09:32:08.322Z,8.42
2023-03-13T09:47:31.673Z,8.83
2023-03-13T10:02:37.038Z,9.42
2023-03-13T10:17:40.478Z,9.86
2023-03-13T10:32:44.835Z,10.23
2023-03-13T10:48:14.983Z,10.61
2023-03-13T11:03:23.707Z,10.97
2023-03-13T11:18:40.030Z,11.23
2023-03-13T11:34:06.144Z,11.22
2023-03-13T11:49:26.870Z,11.14
2023-03-13T12:04:38.670Z,11.08
2023-03-13T12:20:09.995Z,11.04
2023-03-13T12:35:24.300Z,11.05
2023-03-13T12:50:46.319Z,11.05
2023-03-13T13:06:19.428Z,11.11
2023-03-13T13:21:26.784Z,11.19
2023-03-13T13:36:31.036Z,11.38
2023-03-13T13:52:06.515Z,11.35
2023-03-13T14:07:19.415Z,11.45
2023-03-13T14:22:22.631Z,11.51
2023-03-13T14:37:44.588Z,11.53
2023-03-13T14:53:05.352Z,11.68
2023-03-13T15:08:22.942Z,11.77
2023-03-13T15:23:26.477Z,11.79
2023-03-13T15:38:29.775Z,12.00
2023-03-13T15:53:37.786Z,12.10
2023-03-13T16:08:41.512Z,12.13
2023-03-13T16:23:44.953Z,12.19
2023-03-13T16:38:51.424Z,12.26
2023-03-13T16:53:56.593Z,12.31
2023-03-13T17:09:02.356Z,12.32
2023-03-13T17:24:07.770Z,12.47
2023-03-13T17:39:14.316Z,12.41
2023-03-13T17:54:19.281Z,12.51
2023-03-13T18:09:22.738Z,12.50
2023-03-13T18:24:26.481Z,12.55
2023-03-13T18:39:32.642Z,12.60
2023-03-13T18:54:35.950Z,12.65
2023-03-13T19:09:43.701Z,12.61
2023-03-13T19:24:47.853Z,12.60
2023-03-13T19:39:51.928Z,12.60
2023-03-13T19:54:56.235Z,12.58
2023-03-13T20:09:59.906Z,12.61
2023-03-13T20:25:04.773Z,12.52
2023-03-13T20:40:10.875Z,12.53
2023-03-13T20:55:14.121Z,12.46
2023-03-13T21:10:18.381Z,12.69
2023-03-13T21:25:22.087Z,12.82
2023-03-13T21:40:25.308Z,13.03
2023-03-13T21:55:28.492Z,13.16
2023-03-13T22:10:31.832Z,13.20
2023-03-13T22:25:39.289Z,13.30
2023-03-13T22:40:42.567Z,13.50
2023-03-13T22:55:45.697Z,13.76
2023-03-13T23:10:48.964Z,13.96
2023-03-13T23:25:52.045Z,14.02
2023-03-13T23:40:55.336Z,13.97
2023-03-13T23:55:58.795Z,14.01
